createdAt,value
2018-07-20T00:00:31.180Z,58.02
2018-07-20T00:01:11.747Z,58.5
2018-07-20T00:01:52.317Z,58.5
2018-07-20T00:02:32.882Z,58.4
2018-07-20T00:03:13.450Z,58.4
2018-07-20T00:03:54.009Z,58.5
2018-07-20T00:04:34.569Z,58.02
2018-07-20T00:05:15.140Z,58.31
2018-07-20T00:05:55.698Z,58.6
2018-07-20T00:06:36.265Z,58.22
2018-07-20T00:07:16.840Z,58.47
2018-07-20T00:07:57.406Z,58.76
2018-07-20T00:08:37.993Z,58.6
2018-07-20T00:09:18.546Z,58.57
2018-07-20T00:09:59.114Z,58.09
2018-07-20T00:10:39.693Z,58.5
2018-07-20T00:11:20.255Z,58.89
2018-07-20T00:12:00.817Z,58.31
2018-07-20T00:12:41.378Z,58.6
2018-07-20T00:13:21.946Z,58.76
2018-07-20T00:14:02.513Z,58.47
2018-07-20T00:14:43.071Z,58.95
2018-07-20T00:15:23.644Z,59.05
2018-07-20T00:16:04.215Z,59.15
2018-07-20T00:16:44.830Z,59.34
2018-07-20T00:17:25.354Z,59.44
2018-07-20T00:18:05.924Z,59.72
2018-07-20T00:18:46.506Z,59.72
2018-07-20T00:19:27.080Z,59.72
2018-07-20T00:20:07.637Z,59.34
2018-07-20T00:20:48.187Z,59.72
2018-07-20T00:21:28.748Z,59.82
2018-07-20T00:22:09.337Z,59.82
2018-07-20T00:22:49.885Z,59.82
2018-07-20T00:23:30.454Z,60.11
2018-07-20T00:24:11.021Z,59.63
2018-07-20T00:24:51.597Z,60.69
2018-07-20T00:25:32.168Z,60.59
2018-07-20T00:26:12.741Z,60.21
2018-07-20T00:26:53.309Z,60.69
2018-07-20T00:27:33.879Z,60.3
2018-07-20T00:28:14.445Z,60.3
2018-07-20T00:28:55.007Z,60.78
2018-07-20T00:29:35.576Z,60.78
2018-07-20T00:30:16.157Z,60.97
2018-07-20T00:30:56.720Z,61.07
2018-07-20T00:31:37.284Z,60.39
2018-07-20T00:32:17.836Z,61.16
2018-07-20T00:32:58.416Z,60.97
2018-07-20T00:33:38.973Z,60.88
2018-07-20T00:34:19.541Z,60.88
2018-07-20T00:35:00.104Z,60.78
2018-07-20T00:35:40.672Z,60.69
2018-07-20T00:36:21.238Z,60.97
2018-07-20T00:37:01.806Z,60.78
2018-07-20T00:37:42.377Z,61.36
2018-07-20T00:38:22.949Z,60.78
2018-07-20T00:39:03.515Z,61.55
2018-07-20T00:39:44.088Z,61.55
2018-07-20T00:40:24.654Z,61.26
2018-07-20T00:41:05.227Z,61.36
2018-07-20T00:41:45.802Z,61.26
2018-07-20T00:42:26.392Z,61.26
2018-07-20T00:43:06.963Z,61.65
2018-07-20T00:43:47.529Z,61.36
2018-07-20T00:44:28.117Z,61.55
2018-07-20T00:45:08.678Z,61.55
2018-07-20T00:45:49.251Z,61.46
2018-07-20T00:46:29.820Z,61.43
2018-07-20T00:47:10.392Z,61.46
2018-07-20T00:47:50.974Z,62.13
2018-07-20T00:48:31.534Z,61.46
2018-07-20T00:49:12.103Z,61.65
2018-07-20T00:49:52.676Z,61.46
2018-07-20T00:50:33.245Z,61.33
2018-07-20T00:51:13.819Z,61.46
2018-07-20T00:51:54.381Z,61.46
2018-07-20T00:52:34.959Z,61.26
2018-07-20T00:53:15.521Z,61.81
2018-07-20T00:53:56.094Z,61.71
2018-07-20T00:54:36.663Z,62.13
2018-07-20T00:55:17.232Z,62.13
2018-07-20T00:55:57.804Z,62.19
2018-07-20T00:56:38.360Z,61.91
2018-07-20T00:57:18.918Z,62
2018-07-20T00:57:59.510Z,61.91
2018-07-20T00:58:40.095Z,61.91
2018-07-20T00:59:20.657Z,62.38
2018-07-20T01:00:01.211Z,62.29
2018-07-20T01:00:41.786Z,62.68
2018-07-20T01:01:22.361Z,62.77
2018-07-20T01:02:02.924Z,62.58
2018-07-20T01:02:43.493Z,62.38
2018-07-20T01:03:24.061Z,62.58
2018-07-20T01:04:04.631Z,62.77
2018-07-20T01:04:45.211Z,62.29
2018-07-20T01:05:25.780Z,61.91
2018-07-20T01:06:06.343Z,62.1
2018-07-20T01:06:46.917Z,62.48
2018-07-20T01:07:27.477Z,62.1
2018-07-20T01:08:08.052Z,61.91
2018-07-20T01:08:48.648Z,62.58
2018-07-20T01:09:29.216Z,62.58
2018-07-20T01:10:09.789Z,62.29
2018-07-20T01:10:50.359Z,62.29
2018-07-20T01:11:30.920Z,62.77
2018-07-20T01:12:11.492Z,62.58
2018-07-20T01:12:52.061Z,62.48
2018-07-20T01:13:32.650Z,62.96
2018-07-20T01:14:13.221Z,63.15
2018-07-20T01:14:53.793Z,63.06
2018-07-20T01:15:34.358Z,63.15
2018-07-20T01:16:14.931Z,63.35
2018-07-20T01:16:55.494Z,63.35
2018-07-20T01:17:36.071Z,63.35
2018-07-20T01:18:16.629Z,63.35
2018-07-20T01:18:57.209Z,63.64
2018-07-20T01:19:37.777Z,63.64
2018-07-20T01:20:18.349Z,63.92
2018-07-20T01:20:58.917Z,64.02
2018-07-20T01:21:39.483Z,63.64
2018-07-20T01:22:20.053Z,63.45
2018-07-20T01:23:00.646Z,63.35
2018-07-20T01:23:41.218Z,62.96
2018-07-20T01:24:21.797Z,63.45
2018-07-20T01:25:02.365Z,63.64
2018-07-20T01:25:42.942Z,63.54
2018-07-20T01:26:23.509Z,63.35
2018-07-20T01:27:04.069Z,63.54
2018-07-20T01:27:44.629Z,62.96
2018-07-20T01:28:25.202Z,63.54
2018-07-20T01:29:05.753Z,63.35
2018-07-20T01:29:46.325Z,63.25
2018-07-20T01:30:26.886Z,63.35
2018-07-20T01:31:07.462Z,63.35
2018-07-20T01:31:48.031Z,63.73
2018-07-20T01:32:28.590Z,63.45
2018-07-20T01:33:09.163Z,63.92
2018-07-20T01:33:49.729Z,64.02
2018-07-20T01:34:30.304Z,63.41
2018-07-20T01:35:10.872Z,63.54
2018-07-20T01:35:51.438Z,63.64
2018-07-20T01:36:32.012Z,63.41
2018-07-20T01:37:12.580Z,63.41
2018-07-20T01:37:53.142Z,64.09
2018-07-20T01:38:33.718Z,63.41
2018-07-20T01:39:14.253Z,63.89
2018-07-20T01:39:54.829Z,64.09
2018-07-20T01:40:35.402Z,64.47
2018-07-20T01:41:15.975Z,64.09
2018-07-20T01:41:56.539Z,64.18
2018-07-20T01:42:37.106Z,64.18
2018-07-20T01:43:17.676Z,64.09
2018-07-20T01:43:58.238Z,64.76
2018-07-20T01:44:38.808Z,64.37
2018-07-20T01:45:19.374Z,64.28
2018-07-20T01:45:59.948Z,64.28
2018-07-20T01:46:40.523Z,63.89
2018-07-20T01:47:21.116Z,64.47
2018-07-20T01:48:01.692Z,64.47
2018-07-20T01:48:42.277Z,64.18
2018-07-20T01:49:22.854Z,64.37
2018-07-20T01:50:03.429Z,64.56
2018-07-20T01:50:44.003Z,64.37
2018-07-20T01:51:24.567Z,64.56
2018-07-20T01:52:05.139Z,64.66
2018-07-20T01:52:45.706Z,64.37
2018-07-20T01:53:26.282Z,64.56
2018-07-20T01:54:06.900Z,64.47
2018-07-20T01:54:47.473Z,64.47
2018-07-20T01:55:28.037Z,64.28
2018-07-20T01:56:08.607Z,64.56
2018-07-20T01:56:49.179Z,64.09
2018-07-20T01:57:29.752Z,64.95
2018-07-20T01:58:10.323Z,65.05
2018-07-20T01:58:50.893Z,65.23
2018-07-20T01:59:31.465Z,65.05
2018-07-20T02:00:12.036Z,65.05
2018-07-20T02:00:52.593Z,65.05
2018-07-20T02:01:33.159Z,65.05
2018-07-20T02:02:13.731Z,65.23
2018-07-20T02:02:54.297Z,65.05
2018-07-20T02:03:34.865Z,64.95
2018-07-20T02:04:15.434Z,65.14
2018-07-20T02:04:55.996Z,64.95
2018-07-20T02:05:36.570Z,65.05
2018-07-20T02:06:17.129Z,64.95
2018-07-20T02:06:57.696Z,64.95
2018-07-20T02:07:38.268Z,64.95
2018-07-20T02:08:18.835Z,64.63
2018-07-20T02:08:59.400Z,65.53
2018-07-20T02:09:39.965Z,65.43
2018-07-20T02:10:20.531Z,65.43
2018-07-20T02:11:01.100Z,65.81
2018-07-20T02:11:41.665Z,65.53
2018-07-20T02:12:22.227Z,65.69
2018-07-20T02:13:02.790Z,66.16
2018-07-20T02:13:43.360Z,66.64
2018-07-20T02:14:23.929Z,66.36
2018-07-20T02:15:04.499Z,66.36
2018-07-20T02:15:45.107Z,66.46
2018-07-20T02:16:25.658Z,66.58
2018-07-20T02:17:06.228Z,66.36
2018-07-20T02:17:46.802Z,66.39
2018-07-20T02:18:27.363Z,66.46
2018-07-20T02:19:07.936Z,66.46
2018-07-20T02:19:48.500Z,66.46
2018-07-20T02:20:29.089Z,66.55
2018-07-20T02:21:09.668Z,66.07
2018-07-20T02:21:50.241Z,66.07
2018-07-20T02:22:30.793Z,66.3
2018-07-20T02:23:11.349Z,66.46
2018-07-20T02:23:51.917Z,66.07
2018-07-20T02:24:32.486Z,66.26
2018-07-20T02:25:13.061Z,66.55
2018-07-20T02:25:53.619Z,66.26
2018-07-20T02:26:34.179Z,66.97
2018-07-20T02:27:14.740Z,66.74
2018-07-20T02:27:55.315Z,66.3
2018-07-20T02:28:35.882Z,66.46
2018-07-20T02:29:16.441Z,66.26
2018-07-20T02:29:57.009Z,66.55
2018-07-20T02:30:37.578Z,66.64
2018-07-20T02:31:18.138Z,66.77
2018-07-20T02:31:58.696Z,66.84
2018-07-20T02:32:39.269Z,67.03
2018-07-20T02:33:19.830Z,66.84
2018-07-20T02:34:00.400Z,67.22
2018-07-20T02:34:40.977Z,67.22
2018-07-20T02:35:21.548Z,67.99
2018-07-20T02:36:02.116Z,68.08
2018-07-20T02:36:42.684Z,68.08
2018-07-20T02:37:23.258Z,67.61
2018-07-20T02:38:03.819Z,67.8
2018-07-20T02:38:44.419Z,68.18
2018-07-20T02:39:24.965Z,67.61
2018-07-20T02:40:05.547Z,67.7
2018-07-20T02:40:46.110Z,67.8
2018-07-20T02:41:26.674Z,68.28
2018-07-20T02:42:07.232Z,67.9
2018-07-20T02:42:47.819Z,68.47
2018-07-20T02:43:28.401Z,68.37
2018-07-20T02:44:08.965Z,68.08
2018-07-20T02:44:49.533Z,68.47
2018-07-20T02:45:30.100Z,68.18
2018-07-20T02:46:10.669Z,68.66
2018-07-20T02:46:51.241Z,68.95
2018-07-20T02:47:31.811Z,69.05
2018-07-20T02:48:12.374Z,69.05
2018-07-20T02:48:52.953Z,69.24
2018-07-20T02:49:33.505Z,69.14
2018-07-20T02:50:14.078Z,69.4
2018-07-20T02:50:54.641Z,69.34
2018-07-20T02:51:35.217Z,69.34
2018-07-20T02:52:15.774Z,69.24
2018-07-20T02:52:56.339Z,69.59
2018-07-20T02:53:36.908Z,69.59
2018-07-20T02:54:17.479Z,69.97
2018-07-20T02:54:58.050Z,70.1
2018-07-20T02:55:38.640Z,70.1
2018-07-20T02:56:19.197Z,70.1
2018-07-20T02:56:59.768Z,70.1
2018-07-20T02:57:40.339Z,70.1
2018-07-20T02:58:20.907Z,70.49
2018-07-20T02:59:01.473Z,70.07
2018-07-20T02:59:42.041Z,70.26
2018-07-20T03:00:22.607Z,70.45
2018-07-20T03:01:03.180Z,70.17
2018-07-20T03:01:43.749Z,70.64
2018-07-20T03:02:24.316Z,70.64
2018-07-20T03:03:04.876Z,70.84
2018-07-20T03:03:45.432Z,70.64
2018-07-20T03:04:26.001Z,71.31
2018-07-20T03:05:06.564Z,71.51
2018-07-20T03:05:47.129Z,71.61
2018-07-20T03:06:27.692Z,71.35
2018-07-20T03:07:08.258Z,71.45
2018-07-20T03:07:48.829Z,71.41
2018-07-20T03:08:29.401Z,71.12
2018-07-20T03:09:10.051Z,71.61
2018-07-20T03:09:50.534Z,71.51
2018-07-20T03:10:31.092Z,71.61
2018-07-20T03:11:11.661Z,71.61
2018-07-20T03:11:52.227Z,71.61
2018-07-20T03:12:32.802Z,71.22
2018-07-20T03:13:13.373Z,71.64
2018-07-20T03:13:53.935Z,71.93
2018-07-20T03:14:34.503Z,72.02
2018-07-20T03:15:15.061Z,71.98
2018-07-20T03:15:55.628Z,72.18
2018-07-20T03:16:36.192Z,72.12
2018-07-20T03:17:16.764Z,72.18
2018-07-20T03:17:57.329Z,72.18
2018-07-20T03:18:37.896Z,72.37
2018-07-20T03:19:18.455Z,72.18
2018-07-20T03:19:59.022Z,71.98
2018-07-20T03:20:39.597Z,72.02
2018-07-20T03:21:20.181Z,71.89
2018-07-20T03:22:00.746Z,72.47
2018-07-20T03:22:41.314Z,72.28
2018-07-20T03:23:21.886Z,72.66
2018-07-20T03:24:02.457Z,72.66
2018-07-20T03:24:43.031Z,72.66
2018-07-20T03:25:23.596Z,72.95
2018-07-20T03:26:04.160Z,72.85
2018-07-20T03:26:44.726Z,72.56
2018-07-20T03:27:25.329Z,73.04
2018-07-20T03:28:05.899Z,73.14
2018-07-20T03:28:46.461Z,73.43
2018-07-20T03:29:27.032Z,73.14
2018-07-20T03:30:07.657Z,73.04
2018-07-20T03:30:48.184Z,73.43
2018-07-20T03:31:28.748Z,73.14
2018-07-20T03:32:09.319Z,73.33
2018-07-20T03:32:49.952Z,73.52
2018-07-20T03:33:30.455Z,73.72
2018-07-20T03:34:11.041Z,73.62
2018-07-20T03:34:51.605Z,73.72
2018-07-20T03:35:32.172Z,73.72
2018-07-20T03:36:12.745Z,73.81
2018-07-20T03:36:53.313Z,73.43
2018-07-20T03:37:33.876Z,73.43
2018-07-20T03:38:14.442Z,73.14
2018-07-20T03:38:55.004Z,72.66
2018-07-20T03:39:35.573Z,73.04
2018-07-20T03:40:16.145Z,73.24
2018-07-20T03:40:56.717Z,72.85
2018-07-20T03:41:37.326Z,73.43
2018-07-20T03:42:17.887Z,73.14
2018-07-20T03:42:58.457Z,72.99
2018-07-20T03:43:39.021Z,72.85
2018-07-20T03:44:19.608Z,73.04
2018-07-20T03:45:00.177Z,72.95
2018-07-20T03:45:40.750Z,73.52
2018-07-20T03:46:21.303Z,73.43
2018-07-20T03:47:01.863Z,73.52
2018-07-20T03:47:42.452Z,73.43
2018-07-20T03:48:23.024Z,73.43
2018-07-20T03:49:03.658Z,73.33
2018-07-20T03:49:44.153Z,73.43
2018-07-20T03:50:24.710Z,73.33
2018-07-20T03:51:05.268Z,72.95
2018-07-20T03:51:45.837Z,72.85
2018-07-20T03:52:26.403Z,72.95
2018-07-20T03:53:06.988Z,73.24
2018-07-20T03:53:47.565Z,73.33
2018-07-20T03:54:28.124Z,73.04
2018-07-20T03:55:08.686Z,73.04
2018-07-20T03:55:49.267Z,73.33
2018-07-20T03:56:29.848Z,72.85
2018-07-20T03:57:10.416Z,73.33
2018-07-20T03:57:51.014Z,73.04
2018-07-20T03:58:31.591Z,72.85
2018-07-20T03:59:12.154Z,73.04
2018-07-20T03:59:52.722Z,73.04
2018-07-20T04:00:33.283Z,73.24
2018-07-20T04:01:13.860Z,73.14
2018-07-20T04:01:54.416Z,73.33
2018-07-20T04:02:34.985Z,73.43
2018-07-20T04:03:15.546Z,73.52
2018-07-20T04:03:56.110Z,73.81
2018-07-20T04:04:36.680Z,72.89
2018-07-20T04:05:17.253Z,73.14
2018-07-20T04:05:57.810Z,73.33
2018-07-20T04:06:38.379Z,73.33
2018-07-20T04:07:18.951Z,73.46
2018-07-20T04:07:59.519Z,73.43
2018-07-20T04:08:40.085Z,73.08
2018-07-20T04:09:20.643Z,73.46
2018-07-20T04:10:01.219Z,73.52
2018-07-20T04:10:41.786Z,73.37
2018-07-20T04:11:22.356Z,72.79
2018-07-20T04:12:02.924Z,73.08
2018-07-20T04:12:43.492Z,73.27
2018-07-20T04:13:24.060Z,72.85
2018-07-20T04:14:04.620Z,73.37
2018-07-20T04:14:45.187Z,73.04
2018-07-20T04:15:25.763Z,73.33
2018-07-20T04:16:06.331Z,73.56
2018-07-20T04:16:46.901Z,72.89
2018-07-20T04:17:27.469Z,73.37
2018-07-20T04:18:08.036Z,73.37
2018-07-20T04:18:48.609Z,73.08
2018-07-20T04:19:29.177Z,73.18
2018-07-20T04:20:09.793Z,73.37
2018-07-20T04:20:50.356Z,73.08
2018-07-20T04:21:30.921Z,73.08
2018-07-20T04:22:11.479Z,73.37
2018-07-20T04:22:52.046Z,72.99
2018-07-20T04:23:32.618Z,73.18
2018-07-20T04:24:13.189Z,73.08
2018-07-20T04:24:53.753Z,73.37
2018-07-20T04:25:34.322Z,73.46
2018-07-20T04:26:14.888Z,72.99
2018-07-20T04:26:55.447Z,73.37
2018-07-20T04:27:36.024Z,73.18
2018-07-20T04:28:16.686Z,73.27
2018-07-20T04:28:57.242Z,73.18
2018-07-20T04:29:37.809Z,73.37
2018-07-20T04:30:18.376Z,72.89
2018-07-20T04:30:58.935Z,73.18
2018-07-20T04:31:39.502Z,73.18
2018-07-20T04:32:20.082Z,72.69
2018-07-20T04:33:00.659Z,73.27
2018-07-20T04:33:41.224Z,73.27
2018-07-20T04:34:21.797Z,73.27
2018-07-20T04:35:02.371Z,72.99
2018-07-20T04:35:42.934Z,72.89
2018-07-20T04:36:23.545Z,73.18
2018-07-20T04:37:04.071Z,73.18
2018-07-20T04:37:44.637Z,72.99
2018-07-20T04:38:25.213Z,73.37
2018-07-20T04:39:05.788Z,73.46
2018-07-20T04:39:46.359Z,72.99
2018-07-20T04:40:26.923Z,73.08
2018-07-20T04:41:07.499Z,73.18
2018-07-20T04:41:48.068Z,73.18
2018-07-20T04:42:28.629Z,73.18
2018-07-20T04:43:09.201Z,73.18
2018-07-20T04:43:49.780Z,73.02
2018-07-20T04:44:30.340Z,73.08
2018-07-20T04:45:10.908Z,73.18
2018-07-20T04:45:51.479Z,72.92
2018-07-20T04:46:32.042Z,73.5
2018-07-20T04:47:12.616Z,72.92
2018-07-20T04:47:53.186Z,72.64
2018-07-20T04:48:33.758Z,72.44
2018-07-20T04:49:14.309Z,72.73
2018-07-20T04:49:54.951Z,72.64
2018-07-20T04:50:35.444Z,73.21
2018-07-20T04:51:16.030Z,73.31
2018-07-20T04:51:56.598Z,73.41
2018-07-20T04:52:37.161Z,73.6
2018-07-20T04:53:17.726Z,73.5
2018-07-20T04:53:58.287Z,73.79
2018-07-20T04:54:38.866Z,73.6
2018-07-20T04:55:19.433Z,73.5
2018-07-20T04:55:59.999Z,73.02
2018-07-20T04:56:40.564Z,72.54
2018-07-20T04:57:21.146Z,73.21
2018-07-20T04:58:01.719Z,73.31
2018-07-20T04:58:42.322Z,72.64
2018-07-20T04:59:22.861Z,73.02
2018-07-20T05:00:03.432Z,72.54
2018-07-20T05:00:44.000Z,72.06
2018-07-20T05:01:24.568Z,71.67
2018-07-20T05:02:05.139Z,71.77
2018-07-20T05:02:45.710Z,71.77
2018-07-20T05:03:26.279Z,72.06
2018-07-20T05:04:06.846Z,72.25
2018-07-20T05:04:47.418Z,71.67
2018-07-20T05:05:27.987Z,71.58
2018-07-20T05:06:08.547Z,71.77
2018-07-20T05:06:49.128Z,71.48
2018-07-20T05:07:29.702Z,71.87
2018-07-20T05:08:10.260Z,71.81
2018-07-20T05:08:50.823Z,71.81
2018-07-20T05:09:31.387Z,71.81
2018-07-20T05:10:11.952Z,71.81
2018-07-20T05:10:52.561Z,71.52
2018-07-20T05:11:33.230Z,71.71
2018-07-20T05:12:13.679Z,71.42
2018-07-20T05:12:54.282Z,71.81
2018-07-20T05:13:34.848Z,71.42
2018-07-20T05:14:15.423Z,71.61
2018-07-20T05:14:55.994Z,71.42
2018-07-20T05:15:36.559Z,71.61
2018-07-20T05:16:17.126Z,71.23
2018-07-20T05:16:57.699Z,71.52
2018-07-20T05:17:38.267Z,71.42
2018-07-20T05:18:18.838Z,71.81
2018-07-20T05:18:59.386Z,71.23
2018-07-20T05:19:40.136Z,70.94
2018-07-20T05:20:20.730Z,70.37
2018-07-20T05:21:01.291Z,69.6
2018-07-20T05:21:41.935Z,69.5
2018-07-20T05:22:22.527Z,69.4
2018-07-20T05:23:03.144Z,69.31
2018-07-20T05:23:43.691Z,69.69
2018-07-20T05:24:24.537Z,69.79
2018-07-20T05:25:05.095Z,70.17
2018-07-20T05:25:45.693Z,70.01
2018-07-20T05:26:26.281Z,69.63
2018-07-20T05:27:06.929Z,70.27
2018-07-20T05:27:47.526Z,70.11
2018-07-20T05:28:28.096Z,69.92
2018-07-20T05:29:08.727Z,69.44
2018-07-20T05:29:49.312Z,68.86
2018-07-20T05:30:29.885Z,68.19
2018-07-20T05:31:10.515Z,68.29
2018-07-20T05:31:51.063Z,68.48
2018-07-20T05:32:31.755Z,68.67
2018-07-20T05:33:12.240Z,68.19
2018-07-20T05:33:52.806Z,68.19
2018-07-20T05:34:33.400Z,67.8
2018-07-20T05:35:13.990Z,67.8
2018-07-20T05:35:54.548Z,67.35
2018-07-20T05:36:35.165Z,67.55
2018-07-20T05:37:15.738Z,66.88
2018-07-20T05:37:56.336Z,66.68
2018-07-20T05:38:37.007Z,66.68
2018-07-20T05:39:17.573Z,66.3
2018-07-20T05:39:58.152Z,66.39
2018-07-20T05:40:38.729Z,65.63
2018-07-20T05:41:19.405Z,65.37
2018-07-20T05:42:00.231Z,65.37
2018-07-20T05:42:40.881Z,65.85
2018-07-20T05:43:21.543Z,65.08
2018-07-20T05:44:02.305Z,64.69
2018-07-20T05:44:42.967Z,64.4
2018-07-20T05:45:23.529Z,63.18
2018-07-20T05:46:04.112Z,63.28
2018-07-20T05:46:44.663Z,62.9
2018-07-20T05:47:25.268Z,62.8
2018-07-20T05:48:05.824Z,62.9
2018-07-20T05:48:46.404Z,62.99
2018-07-20T05:49:27.019Z,62.63
2018-07-20T05:50:07.597Z,62.15
2018-07-20T05:50:48.167Z,62.54
2018-07-20T05:51:28.731Z,62.45
2018-07-20T05:52:09.315Z,62.83
2018-07-20T05:52:49.876Z,62.09
2018-07-20T05:53:30.545Z,60.83
2018-07-20T05:54:11.019Z,60.83
2018-07-20T05:54:51.615Z,61.13
2018-07-20T05:55:32.169Z,59.8
2018-07-20T05:56:12.748Z,60
2018-07-20T05:56:53.353Z,59.03
2018-07-20T05:57:33.926Z,58.55
2018-07-20T05:58:14.534Z,58.65
2018-07-20T05:58:55.088Z,59.13
2018-07-20T05:59:35.656Z,58.48
2018-07-20T06:00:16.277Z,57.81
2018-07-20T06:00:56.847Z,57.9
2018-07-20T06:01:37.422Z,58.87
2018-07-20T06:02:17.998Z,58.19
2018-07-20T06:02:58.579Z,58.32
2018-07-20T06:03:39.150Z,56.2
2018-07-20T06:04:19.881Z,54.36
2018-07-20T06:05:00.438Z,54.65
2018-07-20T06:05:41.059Z,55.9
2018-07-20T06:06:21.581Z,56.29
2018-07-20T06:07:02.142Z,56.39
2018-07-20T06:07:42.724Z,56.39
2018-07-20T06:08:23.294Z,56.58
2018-07-20T06:09:03.860Z,55.62
2018-07-20T06:09:44.441Z,56.2
2018-07-20T06:10:25.056Z,56.87
2018-07-20T06:11:05.639Z,56.29
2018-07-20T06:11:46.381Z,56.1
2018-07-20T06:12:26.967Z,55.55
2018-07-20T06:13:07.564Z,55.71
2018-07-20T06:13:48.130Z,55.16
2018-07-20T06:14:28.699Z,55.16
2018-07-20T06:15:09.259Z,55.83
2018-07-20T06:15:49.829Z,54.39
2018-07-20T06:16:30.399Z,53.42
2018-07-20T06:17:10.968Z,52.84
2018-07-20T06:17:51.595Z,52.07
2018-07-20T06:18:32.137Z,51.87
2018-07-20T06:19:12.801Z,52.14
2018-07-20T06:19:53.429Z,52.81
2018-07-20T06:20:33.992Z,53.78
2018-07-20T06:21:14.534Z,53.91
2018-07-20T06:21:55.129Z,53.81
2018-07-20T06:22:35.689Z,54.19
2018-07-20T06:23:16.336Z,54.1
2018-07-20T06:23:56.951Z,53.23
2018-07-20T06:24:37.486Z,53.35
2018-07-20T06:25:18.045Z,54.03
2018-07-20T06:25:58.618Z,52.67
2018-07-20T06:26:39.176Z,51.81
2018-07-20T06:27:19.743Z,51.81
2018-07-20T06:28:00.321Z,51.71
2018-07-20T06:28:40.879Z,49.39
2018-07-20T06:29:21.463Z,49.39
2018-07-20T06:30:02.045Z,50.26
2018-07-20T06:30:42.638Z,51.64
2018-07-20T06:31:23.185Z,52.31
2018-07-20T06:32:03.765Z,51.15
2018-07-20T06:32:44.333Z,50.28
2018-07-20T06:33:24.920Z,50.67
2018-07-20T06:34:05.452Z,51.06
2018-07-20T06:34:46.030Z,50.84
2018-07-20T06:35:26.597Z,49.7
2018-07-20T06:36:07.170Z,50.48
2018-07-20T06:36:47.741Z,50.76
2018-07-20T06:37:28.319Z,50.96
2018-07-20T06:38:08.913Z,51.73
2018-07-20T06:38:49.499Z,51.25
2018-07-20T06:39:30.070Z,50.4
2018-07-20T06:40:10.665Z,49.05
2018-07-20T06:40:51.267Z,49.34
2018-07-20T06:41:31.809Z,49.44
2018-07-20T06:42:12.415Z,47.99
2018-07-20T06:42:52.972Z,47.99
2018-07-20T06:43:33.981Z,48.37
2018-07-20T06:44:14.377Z,48.18
2018-07-20T06:44:55.021Z,48.01
2018-07-20T06:45:35.730Z,48.01
2018-07-20T06:46:16.309Z,48.18
2018-07-20T06:46:56.868Z,47.52
2018-07-20T06:47:37.508Z,47.43
2018-07-20T06:48:18.164Z,47.62
2018-07-20T06:48:58.953Z,48.97
2018-07-20T06:49:39.550Z,49.75
2018-07-20T06:50:20.309Z,49.75
2018-07-20T06:51:00.970Z,49.85
2018-07-20T06:51:41.621Z,49.1
2018-07-20T06:52:22.195Z,48.61
2018-07-20T06:53:02.760Z,47.64
2018-07-20T06:53:43.324Z,47.94
2018-07-20T06:54:23.894Z,47.06
2018-07-20T06:55:04.559Z,47.16
2018-07-20T06:55:45.136Z,46.97
2018-07-20T06:56:25.716Z,48.61
2018-07-20T06:57:06.285Z,48.42
2018-07-20T06:57:46.843Z,49.39
2018-07-20T06:58:27.653Z,48.64
2018-07-20T06:59:08.220Z,48.64
2018-07-20T06:59:48.923Z,49.02
2018-07-20T07:00:29.534Z,48.54
2018-07-20T07:01:10.116Z,47.96
2018-07-20T07:01:50.691Z,47.57
2018-07-20T07:02:31.274Z,47.28
2018-07-20T07:03:11.845Z,46.62
2018-07-20T07:03:52.418Z,46.8
2018-07-20T07:04:33.173Z,46.62
2018-07-20T07:05:13.779Z,47.19
2018-07-20T07:05:54.374Z,47.89
2018-07-20T07:06:34.929Z,47.3
2018-07-20T07:07:15.505Z,45.95
2018-07-20T07:07:56.086Z,46.82
2018-07-20T07:08:36.677Z,47.89
2018-07-20T07:09:17.237Z,47.98
2018-07-20T07:09:57.806Z,47.98
2018-07-20T07:10:38.423Z,47.89
2018-07-20T07:11:18.991Z,47.98
2018-07-20T07:11:59.561Z,47.3
2018-07-20T07:12:40.140Z,48.37
2018-07-20T07:13:20.705Z,49.05
2018-07-20T07:14:01.284Z,48.66
2018-07-20T07:14:41.856Z,47.98
2018-07-20T07:15:22.488Z,47.3
2018-07-20T07:16:03.113Z,46.84
2018-07-20T07:16:43.686Z,46.65
2018-07-20T07:17:24.262Z,46.94
2018-07-20T07:18:04.840Z,46.94
2018-07-20T07:18:45.414Z,43.26
2018-07-20T07:19:25.986Z,42.38
2018-07-20T07:20:06.561Z,43.93
2018-07-20T07:20:47.147Z,43.62
2018-07-20T07:21:27.740Z,44.81
2018-07-20T07:22:08.310Z,45.37
2018-07-20T07:22:48.874Z,45.58
2018-07-20T07:23:29.455Z,45.87
2018-07-20T07:24:10.074Z,45.48
2018-07-20T07:24:50.649Z,45
2018-07-20T07:25:31.267Z,44.71
2018-07-20T07:26:11.853Z,43.84
2018-07-20T07:26:52.442Z,44.81
2018-07-20T07:27:33.002Z,45
2018-07-20T07:28:13.567Z,46.16
2018-07-20T07:28:54.174Z,45.68
2018-07-20T07:29:34.768Z,45.61
2018-07-20T07:30:15.371Z,42.99
2018-07-20T07:30:55.980Z,41.24
2018-07-20T07:31:36.533Z,40.15
2018-07-20T07:32:17.115Z,39.76
2018-07-20T07:32:57.692Z,40.05
2018-07-20T07:33:38.262Z,41.39
2018-07-20T07:34:18.837Z,41
2018-07-20T07:34:59.436Z,41.1
2018-07-20T07:35:40.034Z,42.26
2018-07-20T07:36:20.593Z,43.23
2018-07-20T07:37:01.331Z,43.82
2018-07-20T07:37:41.937Z,45.07
2018-07-20T07:38:22.515Z,44.49
2018-07-20T07:39:03.096Z,44.1
2018-07-20T07:39:43.671Z,45.48
2018-07-20T07:40:24.246Z,46.07
2018-07-20T07:41:04.846Z,46.07
2018-07-20T07:41:45.431Z,46.75
2018-07-20T07:42:26.010Z,46.07
2018-07-20T07:43:06.586Z,45.8
2018-07-20T07:43:47.165Z,44.73
2018-07-20T07:44:27.737Z,45.61
2018-07-20T07:45:08.339Z,45.51
2018-07-20T07:45:48.911Z,46.09
2018-07-20T07:46:29.483Z,45.41
2018-07-20T07:47:10.064Z,45.12
2018-07-20T07:47:50.648Z,45.53
2018-07-20T07:48:31.228Z,45.34
2018-07-20T07:49:11.857Z,44.75
2018-07-20T07:49:52.384Z,43.78
2018-07-20T07:50:32.964Z,41.36
2018-07-20T07:51:13.570Z,40.67
2018-07-20T07:51:54.144Z,42.43
2018-07-20T07:52:34.725Z,43.78
2018-07-20T07:53:15.305Z,43.2
2018-07-20T07:53:55.890Z,41.84
2018-07-20T07:54:36.471Z,41.06
2018-07-20T07:55:17.047Z,42.23
2018-07-20T07:55:57.627Z,43.76
2018-07-20T07:56:38.211Z,42.3
2018-07-20T07:57:18.791Z,41.53
2018-07-20T07:57:59.371Z,42.3
2018-07-20T07:58:39.949Z,43.95
2018-07-20T07:59:20.532Z,43.95
2018-07-20T08:00:01.120Z,44.15
2018-07-20T08:00:41.694Z,44.34
2018-07-20T08:01:22.281Z,44.64
2018-07-20T08:02:02.856Z,43.86
2018-07-20T08:02:43.438Z,41.63
2018-07-20T08:03:24.030Z,43.47
2018-07-20T08:04:04.593Z,42.89
2018-07-20T08:04:45.175Z,40.08
2018-07-20T08:05:25.756Z,39.49
2018-07-20T08:06:06.342Z,41.33
2018-07-20T08:06:46.911Z,42.79
2018-07-20T08:07:27.491Z,40.95
2018-07-20T08:08:08.073Z,40.36
2018-07-20T08:08:48.632Z,42.89
2018-07-20T08:09:29.209Z,42.79
2018-07-20T08:10:09.865Z,40.26
2018-07-20T08:10:50.386Z,39.11
2018-07-20T08:11:31.022Z,39.88
2018-07-20T08:12:11.593Z,39.78
2018-07-20T08:12:52.189Z,39.39
2018-07-20T08:13:32.744Z,38.99
2018-07-20T08:14:13.325Z,38.79
2018-07-20T08:14:53.909Z,38.99
2018-07-20T08:15:34.487Z,38.96
2018-07-20T08:16:15.071Z,39.28
2018-07-20T08:16:55.645Z,39.94
2018-07-20T08:17:36.239Z,42.17
2018-07-20T08:18:16.839Z,41.58
2018-07-20T08:18:57.407Z,40.03
2018-07-20T08:19:37.982Z,41.39
2018-07-20T08:20:18.567Z,42.65
2018-07-20T08:20:59.145Z,41
2018-07-20T08:21:39.729Z,42.55
2018-07-20T08:22:20.309Z,43.62
2018-07-20T08:23:00.959Z,43.62
2018-07-20T08:23:41.453Z,44.98
2018-07-20T08:24:22.046Z,46.55
2018-07-20T08:25:02.630Z,45.1
2018-07-20T08:25:43.197Z,45.78
2018-07-20T08:26:23.806Z,46.28
2018-07-20T08:27:04.349Z,45.99
2018-07-20T08:27:44.925Z,45.51
2018-07-20T08:28:25.503Z,44.34
2018-07-20T08:29:06.076Z,44.15
2018-07-20T08:29:46.658Z,44.44
2018-07-20T08:30:27.227Z,44.64
2018-07-20T08:31:07.789Z,45.21
2018-07-20T08:31:48.363Z,45.72
2018-07-20T08:32:28.930Z,44.44
2018-07-20T08:33:09.504Z,43.78
2018-07-20T08:33:50.110Z,43.98
2018-07-20T08:34:30.658Z,44.07
2018-07-20T08:35:11.223Z,41.74
2018-07-20T08:35:51.799Z,42.43
2018-07-20T08:36:32.378Z,43.01
2018-07-20T08:37:12.954Z,43.59
2018-07-20T08:37:53.522Z,41.84
2018-07-20T08:38:34.122Z,41.06
2018-07-20T08:39:14.698Z,41.26
2018-07-20T08:39:55.264Z,41.43
2018-07-20T08:40:35.834Z,40.75
2018-07-20T08:41:16.458Z,41.05
2018-07-20T08:41:56.973Z,42.89
2018-07-20T08:42:37.550Z,44.54
2018-07-20T08:43:18.127Z,44.34
2018-07-20T08:43:58.698Z,45.12
2018-07-20T08:44:39.269Z,45.21